Time;durP1;ratioP1;P1;durP2;ratioP2;P2;SDS_P1;SDS_P2;PMS_P1;PMS_P2;Temp;Humidity;BMP_temperature;BMP_pressure;BME280_temperature;BME280_humidity;BME280_pressure;Samples;Min_cycle;Max_cycle;Signal;HPM_P1;HPM_P2
2022/07/15 00:00:32;;;;;;;13.43;2.78;;;;;;;;;;4921518;29;20041;-92
2022/07/15 00:03:02;;;;;;;10.40;2.13;;;;;;;;;;4953113;28;20598;-90
2022/07/15 00:05:28;;;;;;;13.77;1.92;;;;;;;;;;4950696;28;20067;-91
2022/07/15 00:07:54;;;;;;;8.52;1.75;;;;;;;;;;4951102;28;20091;-91
2022/07/15 00:10:23;;;;;;;16.15;1.98;;;;;;;;;;4933604;29;20071;-90
2022/07/15 00:12:56;;;;;;;10.23;1.70;;;;;;;;;;4933204;29;20040;-90
2022/07/15 00:15:24;;;;;;;8.07;1.55;;;;;;;;;;4931507;29;20044;-90
2022/07/15 00:17:51;;;;;;;6.20;1.45;;;;;;;;;;4936208;29;20027;-91
2022/07/15 00:20:17;;;;;;;10.20;1.85;;;;;;;;;;4934333;29;20039;-90
2022/07/15 00:22:45;;;;;;;7.50;2.00;;;;;;;;;;4935740;29;20031;-91
2022/07/15 00:25:11;;;;;;;11.73;2.05;;;;;;;;;;4941647;29;20027;-91
2022/07/15 00:27:50;;;;;;;7.35;2.47;;;;;;;;;;4936760;29;20031;-90
2022/07/15 00:30:16;;;;;;;9.82;1.75;;;;;;;;;;4933118;29;20035;-91
2022/07/15 00:32:42;;;;;;;13.43;2.28;;;;;;;;;;4934729;29;20047;-91
2022/07/15 00:35:08;;;;;;;5.82;1.20;;;;;;;;;;4934432;29;20566;-89
2022/07/15 00:37:34;;;;;;;10.82;2.03;;;;;;;;;;4935795;29;20083;-90
2022/07/15 00:40:01;;;;;;;8.20;1.88;;;;;;;;;;4933098;29;20522;-90
2022/07/15 00:42:45;;;;;;;7.55;2.25;;;;;;;;;;4933843;29;20114;-90
2022/07/15 00:45:15;;;;;;;15.40;2.15;;;;;;;;;;4950568;28;20495;-90
2022/07/15 00:47:42;;;;;;;14.77;2.38;;;;;;;;;;4935481;29;20032;-90
2022/07/15 00:50:09;;;;;;;18.98;2.88;;;;;;;;;;4933228;29;20040;-90
2022/07/15 00:52:36;;;;;;;12.52;1.63;;;;;;;;;;4946121;28;20063;-91
2022/07/15 00:55:07;;;;;;;9.50;2.00;;;;;;;;;;4917810;29;20039;-91
2022/07/15 00:57:33;;;;;;;7.57;1.80;;;;;;;;;;4944284;28;20040;-90
2022/07/15 01:00:01;;;;;;;9.00;1.60;;;;;;;;;;4946965;28;20050;-91
2022/07/15 01:02:27;;;;;;;12.50;1.35;;;;;;;;;;4929084;29;20379;-91
2022/07/15 01:04:54;;;;;;;15.88;2.08;;;;;;;;;;4929552;29;20043;-91
2022/07/15 01:07:20;;;;;;;8.73;1.60;;;;;;;;;;4947991;28;20552;-91
2022/07/15 01:09:47;;;;;;;11.88;1.70;;;;;;;;;;4948518;28;20483;-90
2022/07/15 01:12:13;;;;;;;11.80;1.95;;;;;;;;;;4949105;28;20152;-90
2022/07/15 01:14:39;;;;;;;9.68;1.75;;;;;;;;;;4934756;29;20044;-90
2022/07/15 01:17:10;;;;;;;8.75;1.80;;;;;;;;;;4935688;29;20062;-91
2022/07/15 01:19:36;;;;;;;6.85;1.83;;;;;;;;;;4946459;28;20035;-91
2022/07/15 01:22:02;;;;;;;9.32;1.58;;;;;;;;;;4930521;29;20032;-89
2022/07/15 01:24:28;;;;;;;15.25;1.70;;;;;;;;;;4934198;29;20050;-89
2022/07/15 01:26:54;;;;;;;5.97;1.25;;;;;;;;;;4931678;29;20452;-88
2022/07/15 01:29:20;;;;;;;7.63;1.25;;;;;;;;;;4948275;28;20764;-89
2022/07/15 01:31:52;;;;;;;10.05;1.60;;;;;;;;;;4946521;28;21317;-89
2022/07/15 01:34:19;;;;;;;9.40;1.95;;;;;;;;;;4936938;29;20071;-89
2022/07/15 01:36:45;;;;;;;6.30;1.00;;;;;;;;;;4931379;29;20447;-89
2022/07/15 01:39:11;;;;;;;10.63;1.73;;;;;;;;;;4945825;28;20130;-89
2022/07/15 01:41:38;;;;;;;8.88;1.33;;;;;;;;;;4932386;29;20496;-89
2022/07/15 01:44:04;;;;;;;7.50;1.17;;;;;;;;;;4936746;29;20392;-90
2022/07/15 01:46:30;;;;;;;6.30;1.17;;;;;;;;;;4946089;28;20064;-89
2022/07/15 01:51:41;;;;;;;9.10;1.80;;;;;;;;;;4935367;29;20411;-90
2022/07/15 01:54:07;;;;;;;9.90;1.42;;;;;;;;;;4915747;29;20126;-89
2022/07/15 01:56:36;;;;;;;9.00;1.73;;;;;;;;;;4945628;28;20143;-90
2022/07/15 01:59:02;;;;;;;9.73;1.10;;;;;;;;;;4932093;29;20042;-89
2022/07/15 02:01:28;;;;;;;3.90;1.10;;;;;;;;;;4950155;28;20035;-89
2022/07/15 02:03:54;;;;;;;9.27;1.23;;;;;;;;;;4948134;28;20035;-91
2022/07/15 02:06:20;;;;;;;8.57;1.30;;;;;;;;;;4943843;28;20028;-90
2022/07/15 02:08:46;;;;;;;10.70;0.90;;;;;;;;;;4946977;28;20447;-90
2022/07/15 02:11:12;;;;;;;8.32;1.05;;;;;;;;;;4929398;29;20066;-89
2022/07/15 02:13:38;;;;;;;7.90;1.15;;;;;;;;;;4947472;28;20059;-90
2022/07/15 02:16:05;;;;;;;8.95;0.93;;;;;;;;;;4933582;29;20047;-89
2022/07/15 02:18:31;;;;;;;8.63;1.35;;;;;;;;;;4933667;29;20035;-89
2022/07/15 02:20:57;;;;;;;9.73;1.40;;;;;;;;;;4930919;29;20146;-89
2022/07/15 02:23:23;;;;;;;7.63;1.00;;;;;;;;;;4946005;28;20040;-90
2022/07/15 02:25:49;;;;;;;3.35;0.73;;;;;;;;;;4942945;28;20282;-90
2022/07/15 02:28:16;;;;;;;3.08;1.23;;;;;;;;;;4920247;29;20028;-90
2022/07/15 02:30:42;;;;;;;7.38;1.20;;;;;;;;;;4943760;28;20467;-90
2022/07/15 02:33:09;;;;;;;4.80;0.80;;;;;;;;;;4946921;28;20031;-90
2022/07/15 02:35:35;;;;;;;8.23;1.58;;;;;;;;;;4931146;29;20096;-90
2022/07/15 02:38:02;;;;;;;7.20;1.92;;;;;;;;;;4942241;28;20101;-88
2022/07/15 02:40:28;;;;;;;5.03;1.30;;;;;;;;;;4948214;28;20040;-89
2022/07/15 02:42:57;;;;;;;3.38;1.23;;;;;;;;;;4942210;28;20048;-90
2022/07/15 02:45:25;;;;;;;5.28;1.35;;;;;;;;;;4942721;28;20411;-89
2022/07/15 02:47:51;;;;;;;5.70;1.30;;;;;;;;;;4942599;28;20085;-89
2022/07/15 02:50:18;;;;;;;6.20;1.52;;;;;;;;;;4914092;29;20036;-90
2022/07/15 02:52:44;;;;;;;11.07;0.75;;;;;;;;;;4929597;29;20091;-89
2022/07/15 02:55:11;;;;;;;3.13;1.00;;;;;;;;;;4949112;28;20059;-90
2022/07/15 02:57:38;;;;;;;2.45;0.80;;;;;;;;;;4945454;28;20032;-90
2022/07/15 03:00:05;;;;;;;3.15;0.82;;;;;;;;;;4947389;28;20587;-89
2022/07/15 03:02:31;;;;;;;6.05;0.80;;;;;;;;;;4914944;29;20026;-89
2022/07/15 03:04:58;;;;;;;5.07;1.13;;;;;;;;;;4950303;28;20035;-89
2022/07/15 03:07:28;;;;;;;7.15;0.93;;;;;;;;;;4920314;29;20039;-90
2022/07/15 03:09:54;;;;;;;4.30;1.00;;;;;;;;;;4938616;29;20087;-90
2022/07/15 03:12:20;;;;;;;7.95;1.38;;;;;;;;;;4915800;29;20035;-90
2022/07/15 03:14:46;;;;;;;5.57;1.05;;;;;;;;;;4946053;28;20032;-90
2022/07/15 03:17:12;;;;;;;6.25;0.90;;;;;;;;;;4941581;28;20023;-89
2022/07/15 03:19:38;;;;;;;6.57;1.05;;;;;;;;;;4937429;29;20395;-89
2022/07/15 03:22:04;;;;;;;6.63;1.58;;;;;;;;;;4933982;29;20048;-90
2022/07/15 03:24:30;;;;;;;5.97;2.63;;;;;;;;;;4949243;28;20024;-90
2022/07/15 03:26:56;;;;;;;7.57;1.15;;;;;;;;;;4945683;28;20028;-89
2022/07/15 03:29:22;;;;;;;7.60;0.90;;;;;;;;;;4935239;29;20032;-89
2022/07/15 03:31:48;;;;;;;10.23;1.25;;;;;;;;;;4943433;28;20068;-88
2022/07/15 03:34:14;;;;;;;4.68;1.60;;;;;;;;;;4949589;28;20032;-90
2022/07/15 03:36:40;;;;;;;6.25;1.15;;;;;;;;;;4917307;29;20035;-89
2022/07/15 03:39:07;;;;;;;2.55;0.88;;;;;;;;;;4945594;28;20597;-90
2022/07/15 03:41:33;;;;;;;12.38;1.10;;;;;;;;;;4951751;28;20056;-91
2022/07/15 03:44:00;;;;;;;2.25;0.68;;;;;;;;;;4932793;29;20042;-89
2022/07/15 03:46:26;;;;;;;2.67;0.95;;;;;;;;;;4944968;28;20451;-89
2022/07/15 03:48:52;;;;;;;9.27;1.02;;;;;;;;;;4945179;28;20043;-90
2022/07/15 03:51:18;;;;;;;3.35;0.85;;;;;;;;;;4948219;28;20175;-90
2022/07/15 03:53:45;;;;;;;6.45;1.33;;;;;;;;;;4952249;28;20035;-90
2022/07/15 03:56:11;;;;;;;8.30;1.10;;;;;;;;;;4949131;28;20066;-89
2022/07/15 03:58:37;;;;;;;2.85;1.20;;;;;;;;;;4921045;29;20031;-90
2022/07/15 04:01:04;;;;;;;3.65;0.80;;;;;;;;;;4950494;28;20174;-90
2022/07/15 04:03:30;;;;;;;1.67;0.90;;;;;;;;;;4939812;29;20027;-90
2022/07/15 04:05:56;;;;;;;3.13;0.82;;;;;;;;;;4938917;29;20042;-90
2022/07/15 04:08:22;;;;;;;6.35;1.10;;;;;;;;;;4938077;29;20432;-91
2022/07/15 04:10:48;;;;;;;3.70;0.90;;;;;;;;;;4939228;29;20042;-90
2022/07/15 04:13:18;;;;;;;4.78;0.80;;;;;;;;;;4957562;28;20458;-90
2022/07/15 04:15:44;;;;;;;6.32;1.27;;;;;;;;;;4940195;28;20549;-90
2022/07/15 04:18:10;;;;;;;1.85;0.80;;;;;;;;;;4956027;28;20038;-90
2022/07/15 04:20:43;;;;;;;1.60;0.80;;;;;;;;;;4939142;29;20044;-89
2022/07/15 04:23:09;;;;;;;9.38;1.50;;;;;;;;;;4958771;28;20020;-90
2022/07/15 04:25:35;;;;;;;4.95;1.10;;;;;;;;;;4924462;29;20391;-89
2022/07/15 04:28:01;;;;;;;4.20;1.05;;;;;;;;;;4955981;28;20032;-90
2022/07/15 04:30:27;;;;;;;3.75;0.95;;;;;;;;;;4950375;28;20047;-89
2022/07/15 04:32:53;;;;;;;3.97;1.05;;;;;;;;;;4953449;28;20376;-89
2022/07/15 04:35:20;;;;;;;8.32;0.90;;;;;;;;;;4951629;28;20480;-90
2022/07/15 04:37:46;;;;;;;3.72;1.40;;;;;;;;;;4948994;28;20058;-89
2022/07/15 04:40:12;;;;;;;3.90;1.13;;;;;;;;;;4950922;28;20032;-88
2022/07/15 04:42:38;;;;;;;6.10;1.10;;;;;;;;;;4947808;28;20047;-89
2022/07/15 04:45:04;;;;;;;5.50;0.80;;;;;;;;;;4950245;28;20035;-89
2022/07/15 04:47:31;;;;;;;6.78;1.05;;;;;;;;;;4933244;29;20415;-89
2022/07/15 04:52:45;;;;;;;4.57;1.10;;;;;;;;;;4933647;29;20046;-88
2022/07/15 04:55:11;;;;;;;6.65;1.00;;;;;;;;;;4936395;29;20439;-90
2022/07/15 04:57:37;;;;;;;6.72;1.23;;;;;;;;;;4935762;29;20040;-90
2022/07/15 05:00:05;;;;;;;4.25;1.05;;;;;;;;;;4935371;29;20804;-90
2022/07/15 05:02:31;;;;;;;6.40;0.65;;;;;;;;;;4950805;28;20489;-90
2022/07/15 05:04:57;;;;;;;3.58;0.80;;;;;;;;;;4946758;28;20124;-90
2022/07/15 05:07:23;;;;;;;6.22;1.00;;;;;;;;;;4920717;29;20135;-89
2022/07/15 05:09:49;;;;;;;3.30;0.80;;;;;;;;;;4950669;28;20071;-90
2022/07/15 05:12:15;;;;;;;4.43;0.70;;;;;;;;;;4938170;29;20046;-90
2022/07/15 05:14:42;;;;;;;6.70;0.93;;;;;;;;;;4933299;29;20031;-89
2022/07/15 05:17:08;;;;;;;3.65;0.88;;;;;;;;;;4949372;28;20570;-90
2022/07/15 05:19:35;;;;;;;2.40;1.08;;;;;;;;;;4936409;29;20032;-90
2022/07/15 05:22:01;;;;;;;2.00;0.70;;;;;;;;;;4946766;28;20075;-90
2022/07/15 05:24:27;;;;;;;6.57;1.55;;;;;;;;;;4954458;28;20065;-90
2022/07/15 05:26:53;;;;;;;5.82;1.40;;;;;;;;;;4955086;28;20023;-90
2022/07/15 05:29:22;;;;;;;6.10;1.02;;;;;;;;;;4949799;28;20530;-91
2022/07/15 05:31:49;;;;;;;2.28;1.38;;;;;;;;;;4952164;28;20038;-89
2022/07/15 05:34:15;;;;;;;4.07;0.90;;;;;;;;;;4947850;28;20115;-91
2022/07/15 05:36:41;;;;;;;3.30;0.98;;;;;;;;;;4953839;28;20499;-91
2022/07/15 05:39:07;;;;;;;6.57;1.10;;;;;;;;;;4920218;29;20046;-90
2022/07/15 05:41:33;;;;;;;2.60;0.90;;;;;;;;;;4948568;28;20491;-90
2022/07/15 05:44:00;;;;;;;4.88;1.10;;;;;;;;;;4932960;29;20028;-90
2022/07/15 05:46:26;;;;;;;4.10;0.85;;;;;;;;;;4934067;29;20032;-90
2022/07/15 05:48:55;;;;;;;8.35;1.55;;;;;;;;;;4947914;28;20427;-90
2022/07/15 05:51:21;;;;;;;3.47;0.80;;;;;;;;;;4920830;29;20034;-89
2022/07/15 05:53:47;;;;;;;4.72;1.02;;;;;;;;;;4945934;28;20126;-89
2022/07/15 05:56:13;;;;;;;11.98;1.55;;;;;;;;;;4933832;29;20059;-89
2022/07/15 05:58:39;;;;;;;3.28;0.80;;;;;;;;;;4948860;29;20063;-89
2022/07/15 06:01:05;;;;;;;5.13;0.70;;;;;;;;;;4949218;28;20149;-89
2022/07/15 06:03:32;;;;;;;2.15;0.80;;;;;;;;;;4949287;28;20475;-89
2022/07/15 06:05:58;;;;;;;4.05;0.90;;;;;;;;;;4948324;28;20120;-90
2022/07/15 06:08:24;;;;;;;5.90;0.70;;;;;;;;;;4951174;28;20046;-90
2022/07/15 06:10:50;;;;;;;3.72;0.88;;;;;;;;;;4947750;28;20038;-90
2022/07/15 06:13:16;;;;;;;3.90;0.85;;;;;;;;;;4919502;29;20420;-89
2022/07/15 06:15:42;;;;;;;9.73;1.15;;;;;;;;;;4950336;28;20031;-91
2022/07/15 06:18:09;;;;;;;2.38;0.93;;;;;;;;;;4934888;28;20031;-89
2022/07/15 06:20:35;;;;;;;3.13;0.90;;;;;;;;;;4937775;29;20035;-91
2022/07/15 06:23:01;;;;;;;8.13;1.27;;;;;;;;;;4950462;28;20509;-91
2022/07/15 06:25:27;;;;;;;2.67;1.10;;;;;;;;;;4938941;29;20110;-91
2022/07/15 06:27:53;;;;;;;5.43;1.10;;;;;;;;;;4934408;29;20040;-89
2022/07/15 06:30:19;;;;;;;3.60;0.90;;;;;;;;;;4948181;28;20083;-91
2022/07/15 06:32:45;;;;;;;7.95;1.40;;;;;;;;;;4934812;29;20043;-90
2022/07/15 06:35:11;;;;;;;4.85;0.93;;;;;;;;;;4919571;29;20127;-91
2022/07/15 06:37:37;;;;;;;8.02;1.20;;;;;;;;;;4936410;29;20035;-90
2022/07/15 06:40:04;;;;;;;11.38;1.83;;;;;;;;;;4948003;28;20078;-89
2022/07/15 06:42:31;;;;;;;9.13;1.30;;;;;;;;;;4936360;28;20056;-94
2022/07/15 06:44:57;;;;;;;6.60;1.30;;;;;;;;;;4948468;28;20499;-90
2022/07/15 06:47:23;;;;;;;6.60;1.25;;;;;;;;;;4938079;29;20582;-89
2022/07/15 06:49:50;;;;;;;3.88;1.08;;;;;;;;;;4950844;28;20119;-88
2022/07/15 06:52:16;;;;;;;7.43;1.00;;;;;;;;;;4947895;28;20031;-89
2022/07/15 06:54:42;;;;;;;2.80;1.30;;;;;;;;;;4927863;29;20035;-89
2022/07/15 06:57:08;;;;;;;4.20;1.30;;;;;;;;;;4942795;28;20086;-89
2022/07/15 06:59:35;;;;;;;5.07;1.35;;;;;;;;;;4942612;28;20036;-89
2022/07/15 07:02:01;;;;;;;8.13;1.83;;;;;;;;;;4947358;28;20046;-87
2022/07/15 07:04:27;;;;;;;2.45;1.05;;;;;;;;;;4930972;29;20059;-92
2022/07/15 07:06:53;;;;;;;5.55;1.10;;;;;;;;;;4945213;28;20052;-88
2022/07/15 07:09:19;;;;;;;1.85;1.15;;;;;;;;;;4932359;29;20035;-88
2022/07/15 07:11:45;;;;;;;4.40;1.15;;;;;;;;;;4933699;29;20036;-87
2022/07/15 07:14:11;;;;;;;3.63;1.50;;;;;;;;;;4918656;29;20090;-88
2022/07/15 07:16:37;;;;;;;5.85;1.30;;;;;;;;;;4933492;29;20031;-88
2022/07/15 07:19:03;;;;;;;3.03;0.80;;;;;;;;;;4946258;28;20152;-88
2022/07/15 07:21:29;;;;;;;2.15;0.90;;;;;;;;;;4935479;29;20035;-88
2022/07/15 07:23:55;;;;;;;7.75;1.20;;;;;;;;;;4929187;29;20028;-87
2022/07/15 07:26:29;;;;;;;8.18;1.20;;;;;;;;;;4940708;29;20035;-88
2022/07/15 07:28:55;;;;;;;4.57;1.17;;;;;;;;;;4918161;29;20415;-88
2022/07/15 07:31:25;;;;;;;10.45;2.20;;;;;;;;;;4935678;29;20047;-88
2022/07/15 07:33:52;;;;;;;4.57;1.00;;;;;;;;;;4952029;28;20032;-88
2022/07/15 07:36:18;;;;;;;10.48;1.30;;;;;;;;;;4952331;28;20070;-88
2022/07/15 07:38:44;;;;;;;5.97;2.17;;;;;;;;;;4949969;28;20079;-88
2022/07/15 07:41:10;;;;;;;2.28;0.95;;;;;;;;;;4949820;28;20083;-88
2022/07/15 07:43:37;;;;;;;3.72;0.90;;;;;;;;;;4952172;28;20522;-88
2022/07/15 07:46:03;;;;;;;7.68;1.75;;;;;;;;;;4952221;28;20043;-88
2022/07/15 07:48:30;;;;;;;5.18;0.75;;;;;;;;;;4919078;29;20063;-88
2022/07/15 07:50:56;;;;;;;2.67;0.88;;;;;;;;;;4937927;29;20019;-88
2022/07/15 07:53:22;;;;;;;3.17;0.68;;;;;;;;;;4922283;29;20035;-88
2022/07/15 07:55:51;;;;;;;5.93;1.48;;;;;;;;;;4934617;29;20031;-88
2022/07/15 07:58:20;;;;;;;6.40;1.15;;;;;;;;;;4945731;28;20260;-87
2022/07/15 08:00:46;;;;;;;5.35;2.22;;;;;;;;;;4930499;29;20483;-88
2022/07/15 08:03:12;;;;;;;4.18;0.98;;;;;;;;;;4917272;29;20031;-88
2022/07/15 08:05:38;;;;;;;7.82;0.88;;;;;;;;;;4946896;28;20043;-87
2022/07/15 08:08:15;;;;;;;6.38;0.90;;;;;;;;;;4946121;28;20032;-87
2022/07/15 08:10:42;;;;;;;2.42;0.63;;;;;;;;;;4934169;29;20035;-87
2022/07/15 08:13:09;;;;;;;1.65;0.63;;;;;;;;;;4942604;28;20050;-88
2022/07/15 08:15:35;;;;;;;2.03;0.50;;;;;;;;;;4936293;29;20542;-87
2022/07/15 08:18:01;;;;;;;3.17;0.68;;;;;;;;;;4922557;29;20027;-87
2022/07/15 08:20:28;;;;;;;1.38;0.60;;;;;;;;;;4952229;28;20044;-88
2022/07/15 08:22:58;;;;;;;1.30;0.70;;;;;;;;;;4938158;29;20039;-88
2022/07/15 08:25:25;;;;;;;2.13;0.28;;;;;;;;;;4946694;28;20078;-88
2022/07/15 08:27:51;;;;;;;4.05;0.60;;;;;;;;;;4937618;29;20032;-88
2022/07/15 08:30:18;;;;;;;2.88;0.80;;;;;;;;;;4940092;28;20402;-89
2022/07/15 08:32:44;;;;;;;1.27;0.63;;;;;;;;;;4932175;29;20028;-88
2022/07/15 08:35:10;;;;;;;3.28;0.65;;;;;;;;;;4932350;29;20042;-88
2022/07/15 08:37:37;;;;;;;1.33;0.68;;;;;;;;;;4937469;29;20032;-87
2022/07/15 08:40:03;;;;;;;0.75;0.47;;;;;;;;;;4918358;29;20036;-88
2022/07/15 08:42:30;;;;;;;3.20;0.68;;;;;;;;;;4917760;29;20508;-89
2022/07/15 08:44:55;;;;;;;2.45;0.80;;;;;;;;;;4947764;28;20175;-88
2022/07/15 08:47:25;;;;;;;1.15;0.70;;;;;;;;;;4943109;29;20101;-87
2022/07/15 08:49:58;;;;;;;0.90;0.55;;;;;;;;;;4951819;28;20043;-87
2022/07/15 08:52:25;;;;;;;1.23;0.50;;;;;;;;;;4920531;29;20079;-88
2022/07/15 08:54:51;;;;;;;4.57;0.60;;;;;;;;;;4950555;28;20028;-87
2022/07/15 08:57:18;;;;;;;1.35;0.52;;;;;;;;;;4952342;28;20042;-88
2022/07/15 08:59:47;;;;;;;1.77;0.90;;;;;;;;;;4934953;29;20035;-88
2022/07/15 09:02:14;;;;;;;2.92;0.75;;;;;;;;;;4949348;28;20032;-88
2022/07/15 09:04:59;;;;;;;1.30;0.47;;;;;;;;;;4934947;29;20086;-88
2022/07/15 09:07:25;;;;;;;3.08;0.60;;;;;;;;;;4945877;28;20489;-88
2022/07/15 09:09:51;;;;;;;2.90;0.88;;;;;;;;;;4949595;28;20495;-88
2022/07/15 09:12:17;;;;;;;3.47;0.80;;;;;;;;;;4944403;28;20036;-88
2022/07/15 09:14:44;;;;;;;1.52;0.98;;;;;;;;;;4947262;28;20053;-88
2022/07/15 09:17:10;;;;;;;2.88;0.80;;;;;;;;;;4947696;28;20536;-88
2022/07/15 09:19:55;;;;;;;6.78;0.45;;;;;;;;;;4932275;29;20043;-88
2022/07/15 09:22:21;;;;;;;3.20;0.45;;;;;;;;;;4945447;28;20086;-88
2022/07/15 09:24:50;;;;;;;4.13;0.60;;;;;;;;;;4948986;28;20024;-88
2022/07/15 09:27:33;;;;;;;1.33;0.40;;;;;;;;;;4932556;28;20034;-88
2022/07/15 09:36:03;;;;;;;1.05;0.70;;;;;;;;;;4934350;29;20042;-87
2022/07/15 09:38:46;;;;;;;1.52;0.57;;;;;;;;;;4947156;28;20043;-87
2022/07/15 09:41:14;;;;;;;1.85;0.57;;;;;;;;;;4928310;29;20036;-88
2022/07/15 09:43:52;;;;;;;3.20;0.50;;;;;;;;;;4913839;28;20507;-88
2022/07/15 09:46:19;;;;;;;1.70;0.40;;;;;;;;;;4944559;28;20046;-87
2022/07/15 09:48:46;;;;;;;1.50;0.52;;;;;;;;;;4930614;28;20155;-88
2022/07/15 09:51:12;;;;;;;2.67;0.60;;;;;;;;;;4943174;28;20034;-87
2022/07/15 09:53:40;;;;;;;2.88;0.60;;;;;;;;;;4917455;29;20403;-88
2022/07/15 09:56:07;;;;;;;6.60;0.70;;;;;;;;;;4946042;28;20031;-88
2022/07/15 09:58:33;;;;;;;2.38;0.68;;;;;;;;;;4926954;29;20902;-88
2022/07/15 10:00:59;;;;;;;4.38;0.60;;;;;;;;;;4943065;28;20099;-88
2022/07/15 10:03:26;;;;;;;2.97;0.95;;;;;;;;;;4932254;29;20419;-88
2022/07/15 10:05:54;;;;;;;1.33;0.68;;;;;;;;;;4945170;28;20032;-87
2022/07/15 10:08:20;;;;;;;1.92;0.60;;;;;;;;;;4945377;28;20046;-87
2022/07/15 10:10:49;;;;;;;2.13;0.63;;;;;;;;;;4932407;29;20050;-87
2022/07/15 10:13:38;;;;;;;2.30;0.60;;;;;;;;;;4913652;29;20036;-87
2022/07/15 10:16:23;;;;;;;2.22;0.63;;;;;;;;;;4945696;28;20102;-87
2022/07/15 10:18:55;;;;;;;0.77;0.60;;;;;;;;;;4944865;28;20491;-88
2022/07/15 10:21:27;;;;;;;3.65;0.98;;;;;;;;;;4925641;29;20115;-88
2022/07/15 10:23:53;;;;;;;1.70;0.73;;;;;;;;;;4946496;28;20717;-88
2022/07/15 10:26:22;;;;;;;2.97;0.93;;;;;;;;;;4942853;28;20031;-87
2022/07/15 10:28:57;;;;;;;0.80;0.60;;;;;;;;;;4928844;29;20039;-87
2022/07/15 10:31:28;;;;;;;4.57;0.85;;;;;;;;;;4943662;28;20068;-87
2022/07/15 10:34:03;;;;;;;2.20;0.85;;;;;;;;;;4946540;28;20036;-87
2022/07/15 10:36:42;;;;;;;3.63;0.75;;;;;;;;;;4944060;28;20044;-88
2022/07/15 10:39:08;;;;;;;0.95;0.45;;;;;;;;;;4955744;28;20132;-88
2022/07/15 10:41:53;;;;;;;2.47;0.55;;;;;;;;;;4945525;28;20035;-88
2022/07/15 10:44:22;;;;;;;3.00;0.75;;;;;;;;;;4931885;28;20058;-87
2022/07/15 10:47:08;;;;;;;1.23;0.50;;;;;;;;;;4929466;29;20480;-88
2022/07/15 10:49:34;;;;;;;2.33;0.38;;;;;;;;;;4929930;29;20055;-87
2022/07/15 10:52:12;;;;;;;1.20;0.50;;;;;;;;;;4930095;29;20063;-88
2022/07/15 10:54:40;;;;;;;2.10;0.50;;;;;;;;;;4942640;28;20055;-88
2022/07/15 10:57:06;;;;;;;4.13;0.60;;;;;;;;;;4928122;29;20032;-89
2022/07/15 10:59:36;;;;;;;3.10;1.10;;;;;;;;;;4943208;28;20510;-88
2022/07/15 11:02:03;;;;;;;2.85;0.60;;;;;;;;;;4940733;28;20500;-88
2022/07/15 11:04:30;;;;;;;2.75;0.65;;;;;;;;;;4942321;28;20118;-88
2022/07/15 11:07:11;;;;;;;0.73;0.50;;;;;;;;;;4942312;28;20051;-88
2022/07/15 11:09:45;;;;;;;2.38;0.38;;;;;;;;;;4916548;29;20090;-87
2022/07/15 11:12:11;;;;;;;3.05;0.70;;;;;;;;;;4943554;28;23242;-87
2022/07/15 11:14:46;;;;;;;3.40;0.70;;;;;;;;;;4948399;28;20447;-88
2022/07/15 11:17:13;;;;;;;0.90;0.50;;;;;;;;;;4941653;28;20028;-88
2022/07/15 11:19:40;;;;;;;2.55;0.38;;;;;;;;;;4945218;28;20439;-88
2022/07/15 11:22:08;;;;;;;2.40;0.55;;;;;;;;;;4928720;29;20391;-88
2022/07/15 11:24:37;;;;;;;2.60;0.98;;;;;;;;;;4929692;29;20031;-88
2022/07/15 11:27:04;;;;;;;2.80;0.63;;;;;;;;;;4944459;28;20056;-87
2022/07/15 11:29:44;;;;;;;3.15;0.70;;;;;;;;;;4943217;28;20032;-87
2022/07/15 11:32:10;;;;;;;2.53;0.70;;;;;;;;;;4939667;28;20139;-87
2022/07/15 11:34:43;;;;;;;1.17;0.45;;;;;;;;;;4928493;29;20036;-88
2022/07/15 11:37:10;;;;;;;1.33;0.55;;;;;;;;;;4939472;28;20035;-88
2022/07/15 11:39:37;;;;;;;1.63;0.73;;;;;;;;;;4944431;28;20032;-87
2022/07/15 11:44:49;;;;;;;2.20;0.70;;;;;;;;;;4891060;29;20052;-87
2022/07/15 11:47:15;;;;;;;1.95;1.10;;;;;;;;;;4889293;29;20044;-87
2022/07/15 11:49:44;;;;;;;4.65;0.93;;;;;;;;;;4890760;29;20060;-87
2022/07/15 11:52:31;;;;;;;1.10;0.60;;;;;;;;;;4889343;29;20062;-88
2022/07/15 11:54:57;;;;;;;;;;;;;;;;;;4900956;29;20037;-88
2022/07/15 11:57:24;;;;;;;5.13;0.77;;;;;;;;;;4913233;29;19985;-88
2022/07/15 11:59:51;;;;;;;2.42;0.85;;;;;;;;;;4898921;29;20050;-88
2022/07/15 12:02:18;;;;;;;4.18;1.02;;;;;;;;;;4921763;29;20048;-88
2022/07/15 12:04:44;;;;;;;3.72;0.82;;;;;;;;;;4889081;29;20037;-88
2022/07/15 12:07:10;;;;;;;2.42;1.00;;;;;;;;;;4907971;29;20068;-87
2022/07/15 12:09:41;;;;;;;2.88;0.85;;;;;;;;;;4888774;29;20028;-87
2022/07/15 12:12:07;;;;;;;3.20;0.90;;;;;;;;;;4892194;29;20139;-87
2022/07/15 12:14:33;;;;;;;1.60;0.57;;;;;;;;;;4888031;29;20055;-87
2022/07/15 12:16:59;;;;;;;7.00;1.15;;;;;;;;;;4893229;29;20181;-88
2022/07/15 12:19:26;;;;;;;2.40;0.90;;;;;;;;;;4908948;29;20456;-88
2022/07/15 12:21:54;;;;;;;3.63;0.90;;;;;;;;;;4897306;29;20032;-87
2022/07/15 12:24:25;;;;;;;2.22;0.95;;;;;;;;;;4922526;29;20347;-88
2022/07/15 12:26:54;;;;;;;1.88;0.60;;;;;;;;;;4895296;29;20025;-88
2022/07/15 12:29:21;;;;;;;4.97;1.10;;;;;;;;;;4908012;29;20075;-88
2022/07/15 12:31:54;;;;;;;4.82;0.73;;;;;;;;;;4891846;29;20392;-87
2022/07/15 12:34:20;;;;;;;3.05;1.80;;;;;;;;;;4895956;29;20515;-88
2022/07/15 12:36:55;;;;;;;1.63;0.90;;;;;;;;;;4924219;29;20045;-87
2022/07/15 12:39:21;;;;;;;2.60;0.80;;;;;;;;;;4921619;29;20496;-87
2022/07/15 12:41:59;;;;;;;1.95;1.08;;;;;;;;;;4924978;29;20060;-88
2022/07/15 12:44:25;;;;;;;3.03;1.50;;;;;;;;;;4941879;28;20055;-88
2022/07/15 12:47:06;;;;;;;3.38;1.08;;;;;;;;;;4950572;28;20023;-88
2022/07/15 12:49:38;;;;;;;5.40;1.27;;;;;;;;;;4917215;29;20031;-88
2022/07/15 12:52:17;;;;;;;1.75;0.63;;;;;;;;;;4946596;28;20042;-87
2022/07/15 12:54:43;;;;;;;3.42;0.90;;;;;;;;;;4933202;29;20040;-88
2022/07/15 12:57:19;;;;;;;4.18;0.70;;;;;;;;;;4936770;29;20027;-87
2022/07/15 12:59:56;;;;;;;3.47;0.82;;;;;;;;;;4949243;28;20494;-88
2022/07/15 13:02:22;;;;;;;2.03;0.88;;;;;;;;;;4949148;28;20046;-87
2022/07/15 13:04:48;;;;;;;2.08;1.00;;;;;;;;;;4949385;28;20578;-87
2022/07/15 13:07:16;;;;;;;3.90;1.13;;;;;;;;;;4936830;29;20031;-87
2022/07/15 13:09:42;;;;;;;4.75;2.22;;;;;;;;;;4934009;29;20054;-88
2022/07/15 13:12:09;;;;;;;1.42;1.00;;;;;;;;;;4939087;29;20039;-87
2022/07/15 13:14:36;;;;;;;2.33;1.15;;;;;;;;;;4933925;29;20036;-88
2022/07/15 13:17:02;;;;;;;3.35;0.90;;;;;;;;;;4929277;29;20040;-87
2022/07/15 13:19:28;;;;;;;2.85;1.00;;;;;;;;;;4948023;28;20042;-88
2022/07/15 13:21:54;;;;;;;5.32;1.25;;;;;;;;;;4949990;28;20054;-87
2022/07/15 13:24:20;;;;;;;1.45;0.85;;;;;;;;;;4934437;29;20032;-87
2022/07/15 13:26:53;;;;;;;3.10;1.83;;;;;;;;;;4916423;29;20499;-88
2022/07/15 13:29:19;;;;;;;2.97;0.90;;;;;;;;;;4939154;29;20044;-88
2022/07/15 13:31:45;;;;;;;1.98;0.88;;;;;;;;;;4948295;28;20027;-87
2022/07/15 13:34:11;;;;;;;4.82;1.67;;;;;;;;;;4950964;28;20518;-88
2022/07/15 13:36:37;;;;;;;2.15;1.10;;;;;;;;;;4950642;28;21076;-87
2022/07/15 13:39:04;;;;;;;4.03;1.02;;;;;;;;;;4949836;28;20067;-88
2022/07/15 13:41:30;;;;;;;4.45;1.13;;;;;;;;;;4947399;28;20055;-87
2022/07/15 13:43:57;;;;;;;3.15;1.23;;;;;;;;;;4902630;29;20472;-87
2022/07/15 13:46:23;;;;;;;7.65;1.27;;;;;;;;;;4945325;28;20028;-87
2022/07/15 13:48:49;;;;;;;6.00;1.52;;;;;;;;;;4933383;29;20066;-87
2022/07/15 13:51:24;;;;;;;8.20;1.10;;;;;;;;;;4947068;28;20040;-87
2022/07/15 13:53:51;;;;;;;5.90;1.03;;;;;;;;;;4931453;29;20058;-87
2022/07/15 13:56:18;;;;;;;3.72;1.02;;;;;;;;;;4947327;28;20379;-87
2022/07/15 13:58:44;;;;;;;2.55;1.20;;;;;;;;;;4948285;28;20038;-87
2022/07/15 14:01:10;;;;;;;1.70;0.95;;;;;;;;;;4950915;28;20036;-88
2022/07/15 14:03:36;;;;;;;6.72;0.95;;;;;;;;;;4949800;28;20028;-88
2022/07/15 14:06:03;;;;;;;3.88;0.90;;;;;;;;;;4947250;28;20050;-88
2022/07/15 14:08:29;;;;;;;4.05;0.90;;;;;;;;;;4934069;29;20039;-88
2022/07/15 14:10:55;;;;;;;1.83;0.90;;;;;;;;;;4946611;28;20533;-88
2022/07/15 14:13:21;;;;;;;1.95;0.85;;;;;;;;;;4934683;29;20036;-88
2022/07/15 14:15:47;;;;;;;3.15;1.15;;;;;;;;;;4949087;28;20038;-88
2022/07/15 14:18:14;;;;;;;4.20;1.25;;;;;;;;;;4931401;29;20600;-88
2022/07/15 14:20:41;;;;;;;7.20;1.20;;;;;;;;;;4950748;28;20031;-88
2022/07/15 14:23:07;;;;;;;3.17;1.25;;;;;;;;;;4946742;28;20028;-88
2022/07/15 14:25:33;;;;;;;5.30;0.98;;;;;;;;;;4927291;29;20179;-88
2022/07/15 14:28:00;;;;;;;5.63;1.20;;;;;;;;;;4939812;28;20028;-87
2022/07/15 14:30:26;;;;;;;1.80;1.02;;;;;;;;;;4947374;28;20517;-87
2022/07/15 14:32:53;;;;;;;4.43;1.63;;;;;;;;;;4945932;28;20042;-87
2022/07/15 14:35:19;;;;;;;5.03;1.25;;;;;;;;;;4929018;29;20031;-87
2022/07/15 14:37:45;;;;;;;9.95;1.80;;;;;;;;;;4926706;29;20118;-87
2022/07/15 14:40:11;;;;;;;3.70;0.80;;;;;;;;;;4950690;28;20031;-88
2022/07/15 14:42:38;;;;;;;3.72;1.45;;;;;;;;;;4913618;29;20040;-87
2022/07/15 14:45:05;;;;;;;6.68;1.20;;;;;;;;;;4932089;29;20047;-87
2022/07/15 14:47:31;;;;;;;2.92;1.23;;;;;;;;;;4944601;28;20035;-87
2022/07/15 14:49:57;;;;;;;5.95;1.48;;;;;;;;;;4943534;28;20032;-87
2022/07/15 14:52:23;;;;;;;2.53;1.13;;;;;;;;;;4932517;29;20419;-87
2022/07/15 14:54:49;;;;;;;2.10;1.40;;;;;;;;;;4944706;28;20040;-88
2022/07/15 14:57:16;;;;;;;1.42;1.00;;;;;;;;;;4943991;28;20388;-87
2022/07/15 14:59:42;;;;;;;4.53;1.30;;;;;;;;;;4928282;29;20028;-87